Terminal Aerodrome Forecast
Issued by NWS Cleveland, OH

Home | Current Version | Previous Version | Graphics & Text | Print | Product List | Glossary On
Versions: 1 2 3 4 5 6 7 8 9 10 11 12 13 14 15
517
FTUS41 KCLE 072337
TAFMFD
TAF
KMFD 072337Z 0800/0824 23010KT P6SM BKN100
     FM080900 24012G20KT P6SM OVC050
     FM081800 26015G30KT P6SM OVC035=

USA.gov is the U.S. government's official web portal to all federal, state and local government web resources and services.